createdAt,value
2018-04-11T00:00:21.038Z,12.16
2018-04-11T00:01:21.255Z,12.19
2018-04-11T00:02:21.467Z,12.21
2018-04-11T00:03:21.663Z,12.13
2018-04-11T00:04:21.874Z,12.09
2018-04-11T00:05:22.086Z,12.08
2018-04-11T00:06:22.298Z,12.11
2018-04-11T00:07:22.519Z,12.05
2018-04-11T00:08:22.725Z,12.08
2018-04-11T00:09:22.935Z,11.96
2018-04-11T00:10:24.885Z,11.99
2018-04-11T00:11:23.325Z,11.97
2018-04-11T00:12:23.545Z,11.97
2018-04-11T00:13:23.770Z,12.05
2018-04-11T00:14:23.980Z,11.94
2018-04-11T00:15:25.875Z,12.01
2018-04-11T00:16:24.213Z,11.97
2018-04-11T00:17:24.426Z,11.89
2018-04-11T00:18:24.652Z,11.89
2018-04-11T00:19:24.869Z,11.94
2018-04-11T00:20:25.073Z,11.97
2018-04-11T00:21:25.291Z,11.94
2018-04-11T00:22:25.494Z,12.09
2018-04-11T00:23:27.383Z,12.04
2018-04-11T00:24:25.840Z,12.02
2018-04-11T00:25:26.049Z,11.99
2018-04-11T00:26:26.263Z,11.96
2018-04-11T00:27:28.379Z,12.01
2018-04-11T00:28:26.712Z,12.01
2018-04-11T00:29:26.916Z,11.96
2018-04-11T00:30:27.122Z,11.87
2018-04-11T00:31:27.344Z,11.93
2018-04-11T00:32:27.554Z,11.87
2018-04-11T00:33:27.762Z,11.94
2018-04-11T00:34:27.978Z,11.87
2018-04-11T00:35:28.185Z,11.90
2018-04-11T00:36:28.396Z,11.89
2018-04-11T00:37:28.612Z,11.94
2018-04-11T00:38:28.816Z,11.96
2018-04-11T00:39:29.033Z,11.89
2018-04-11T00:40:29.250Z,11.89
2018-04-11T00:41:30.517Z,11.90
2018-04-11T00:42:31.367Z,11.96
2018-04-11T00:43:29.828Z,12.01
2018-04-11T00:44:30.033Z,12.02
2018-04-11T00:45:30.251Z,12.04
2018-04-11T00:46:30.460Z,11.89
2018-04-11T00:47:30.673Z,11.83
2018-04-11T00:48:30.879Z,11.75
2018-04-11T00:49:31.096Z,11.71
2018-04-11T00:50:31.318Z,11.65
2018-04-11T00:51:31.515Z,11.68
2018-04-11T00:52:31.732Z,11.78
2018-04-11T00:53:33.868Z,11.70
2018-04-11T00:54:32.075Z,11.71
2018-04-11T00:55:32.360Z,11.68
2018-04-11T00:56:32.487Z,11.59
2018-04-11T00:57:32.687Z,11.62
2018-04-11T00:58:32.899Z,11.59
2018-04-11T00:59:33.110Z,11.57
2018-04-11T01:00:33.343Z,11.52
2018-04-11T01:01:33.538Z,11.53
2018-04-11T01:02:33.736Z,11.53
2018-04-11T01:03:33.955Z,11.53
2018-04-11T01:04:34.175Z,11.54
2018-04-11T01:05:34.373Z,11.57
2018-04-11T01:06:34.595Z,11.56
2018-04-11T01:07:34.797Z,11.50
2018-04-11T01:08:35.006Z,11.53
2018-04-11T01:09:35.233Z,11.57
2018-04-11T01:10:35.432Z,11.57
2018-04-11T01:11:39.367Z,11.52
2018-04-11T01:12:35.821Z,11.44
2018-04-11T01:13:36.046Z,11.44
2018-04-11T01:14:36.258Z,11.38
2018-04-11T01:15:36.467Z,11.46
2018-04-11T01:16:36.677Z,11.50
2018-04-11T01:17:36.879Z,11.47
2018-04-11T01:18:37.094Z,11.52
2018-04-11T01:19:37.305Z,11.47
2018-04-11T01:20:37.509Z,11.50
2018-04-11T01:21:37.711Z,11.47
2018-04-11T01:22:37.922Z,11.46
2018-04-11T01:23:38.127Z,11.44
2018-04-11T01:24:38.340Z,11.50
2018-04-11T01:25:38.556Z,11.46
2018-04-11T01:26:38.762Z,11.49
2018-04-11T01:27:38.978Z,11.50
2018-04-11T01:28:39.207Z,11.53
2018-04-11T01:29:41.368Z,11.43
2018-04-11T01:30:39.618Z,11.43
2018-04-11T01:31:41.367Z,11.39
2018-04-11T01:32:39.947Z,11.35
2018-04-11T01:33:40.153Z,11.32
2018-04-11T01:34:40.353Z,11.31
2018-04-11T01:35:40.557Z,11.31
2018-04-11T01:36:40.777Z,11.28
2018-04-11T01:37:40.986Z,11.35
2018-04-11T01:38:41.209Z,11.39
2018-04-11T01:39:41.418Z,11.38
2018-04-11T01:40:41.632Z,11.32
2018-04-11T01:41:41.848Z,11.39
2018-04-11T01:42:42.054Z,11.38
2018-04-11T01:43:42.272Z,11.50
2018-04-11T01:44:42.485Z,11.52
2018-04-11T01:45:42.692Z,11.50
2018-04-11T01:46:42.904Z,11.53
2018-04-11T01:47:44.865Z,11.56
2018-04-11T01:48:43.326Z,11.59
2018-04-11T01:49:43.542Z,11.57
2018-04-11T01:50:43.747Z,11.54
2018-04-11T01:51:43.982Z,11.65
2018-04-11T01:52:45.869Z,11.57
2018-04-11T01:53:44.331Z,11.49
2018-04-11T01:54:44.549Z,11.53
2018-04-11T01:55:44.751Z,11.50
2018-04-11T01:56:44.966Z,11.32
2018-04-11T01:57:45.181Z,11.34
2018-04-11T01:58:45.384Z,11.24
2018-04-11T01:59:45.600Z,11.27
2018-04-11T02:00:45.810Z,11.27
2018-04-11T02:01:46.027Z,11.24
2018-04-11T02:02:49.869Z,11.14
2018-04-11T02:03:46.458Z,11.21
2018-04-11T02:04:46.667Z,11.10
2018-04-11T02:05:46.872Z,11.17
2018-04-11T02:06:47.084Z,11.19
2018-04-11T02:07:47.297Z,11.24
2018-04-11T02:08:49.373Z,11.21
2018-04-11T02:09:47.699Z,11.19
2018-04-11T02:10:47.908Z,11.34
2018-04-11T02:11:48.113Z,11.27
2018-04-11T02:12:48.323Z,11.34
2018-04-11T02:13:48.537Z,11.38
2018-04-11T02:14:48.747Z,11.46
2018-04-11T02:15:50.872Z,11.47
2018-04-11T02:16:49.076Z,11.52
2018-04-11T02:17:49.279Z,11.52
2018-04-11T02:18:49.499Z,11.56
2018-04-11T02:19:51.370Z,11.57
2018-04-11T02:20:49.894Z,11.57
2018-04-11T02:21:49.987Z,11.57
2018-04-11T02:22:50.188Z,11.59
2018-04-11T02:23:50.405Z,11.59
2018-04-11T02:24:50.621Z,11.61
2018-04-11T02:25:52.368Z,11.52
2018-04-11T02:26:50.957Z,11.47
2018-04-11T02:27:51.169Z,11.44
2018-04-11T02:28:51.383Z,11.46
2018-04-11T02:29:51.597Z,11.35
2018-04-11T02:30:53.376Z,11.34
2018-04-11T02:31:51.967Z,11.41
2018-04-11T02:32:52.175Z,11.34
2018-04-11T02:33:52.404Z,11.27
2018-04-11T02:34:52.619Z,11.27
2018-04-11T02:35:52.823Z,11.28
2018-04-11T02:36:53.037Z,11.28
2018-04-11T02:37:53.251Z,11.17
2018-04-11T02:38:53.451Z,11.13
2018-04-11T02:39:53.656Z,11.07
2018-04-11T02:40:55.368Z,11.13
2018-04-11T02:41:54.080Z,11.03
2018-04-11T02:42:54.301Z,11.16
2018-04-11T02:43:54.503Z,11.07
2018-04-11T02:44:54.764Z,11.11
2018-04-11T02:45:54.931Z,11.09
2018-04-11T02:46:55.139Z,11.19
2018-04-11T02:47:55.357Z,11.14
2018-04-11T02:48:55.571Z,11.24
2018-04-11T02:49:56.450Z,11.25
2018-04-11T02:50:55.920Z,11.20
2018-04-11T02:51:56.129Z,11.20
2018-04-11T02:52:56.329Z,11.14
2018-04-11T02:53:56.540Z,11.25
2018-04-11T02:54:56.747Z,11.25
2018-04-11T02:55:56.948Z,11.31
2018-04-11T02:56:57.152Z,11.31
2018-04-11T02:57:57.363Z,11.32
2018-04-11T02:58:57.580Z,11.31
2018-04-11T02:59:57.791Z,11.29
2018-04-11T03:00:58.010Z,11.19
2018-04-11T03:01:58.228Z,11.20
2018-04-11T03:02:58.426Z,11.25
2018-04-11T03:04:02.372Z,11.20
2018-04-11T03:04:58.823Z,11.13
2018-04-11T03:06:00.875Z,11.03
2018-04-11T03:06:59.221Z,10.94
2018-04-11T03:07:59.423Z,10.77
2018-04-11T03:09:01.373Z,10.65
2018-04-11T03:09:59.824Z,10.58
2018-04-11T03:11:00.033Z,10.66
2018-04-11T03:12:00.245Z,10.62
2018-04-11T03:13:00.452Z,10.63
2018-04-11T03:14:00.669Z,10.56
2018-04-11T03:15:00.877Z,10.55
2018-04-11T03:16:02.875Z,10.60
2018-04-11T03:17:01.216Z,10.68
2018-04-11T03:18:01.426Z,10.70
2018-04-11T03:19:03.375Z,10.74
2018-04-11T03:20:01.837Z,10.88
2018-04-11T03:21:03.871Z,10.94
2018-04-11T03:22:02.201Z,10.95
2018-04-11T03:23:02.412Z,10.95
2018-04-11T03:24:02.627Z,10.94
2018-04-11T03:25:02.842Z,11.07
2018-04-11T03:26:04.872Z,10.99
2018-04-11T03:27:03.215Z,11.06
2018-04-11T03:28:03.422Z,11.10
2018-04-11T03:29:03.629Z,11.09
2018-04-11T03:30:05.372Z,11.13
2018-04-11T03:31:03.962Z,11.16
2018-04-11T03:32:04.162Z,11.14
2018-04-11T03:33:04.386Z,11.24
2018-04-11T03:34:04.596Z,11.24
2018-04-11T03:35:04.801Z,11.17
2018-04-11T03:36:05.020Z,11.21
2018-04-11T03:37:05.235Z,11.20
2018-04-11T03:38:05.462Z,11.11
2018-04-11T03:39:05.656Z,11.11
2018-04-11T03:40:05.863Z,11.20
2018-04-11T03:41:07.873Z,11.24
2018-04-11T03:42:06.215Z,11.20
2018-04-11T03:43:06.412Z,11.29
2018-04-11T03:44:06.633Z,11.34
2018-04-11T03:45:06.857Z,11.31
2018-04-11T03:46:08.875Z,11.29
2018-04-11T03:47:07.213Z,11.31
2018-04-11T03:48:07.416Z,11.28
2018-04-11T03:49:07.647Z,11.41
2018-04-11T03:50:07.833Z,11.38
2018-04-11T03:51:08.052Z,11.35
2018-04-11T03:52:08.260Z,11.36
2018-04-11T03:53:08.467Z,11.36
2018-04-11T03:54:08.706Z,11.36
2018-04-11T03:55:08.884Z,11.35
2018-04-11T03:56:10.871Z,11.52
2018-04-11T03:57:12.871Z,11.44
2018-04-11T03:58:11.115Z,11.54
2018-04-11T03:59:11.377Z,11.47
2018-04-11T04:00:09.697Z,11.49
2018-04-11T04:01:09.903Z,11.49
2018-04-11T04:02:10.120Z,11.39
2018-04-11T04:03:10.331Z,11.44
2018-04-11T04:04:10.536Z,11.38
2018-04-11T04:05:10.749Z,11.44
2018-04-11T04:06:10.973Z,11.39
2018-04-11T04:07:11.200Z,11.41
2018-04-11T04:08:13.416Z,11.41
2018-04-11T04:09:11.569Z,11.38
2018-04-11T04:10:11.786Z,11.46
2018-04-11T04:11:12.000Z,11.36
2018-04-11T04:12:12.198Z,11.35
2018-04-11T04:13:12.418Z,11.38
2018-04-11T04:14:12.626Z,11.28
2018-04-11T04:15:12.848Z,11.39
2018-04-11T04:16:13.048Z,11.28
2018-04-11T04:17:13.264Z,11.21
2018-04-11T04:18:13.473Z,11.07
2018-04-11T04:19:13.681Z,10.98
2018-04-11T04:20:13.900Z,10.92
2018-04-11T04:21:17.893Z,10.73
2018-04-11T04:22:14.331Z,10.78
2018-04-11T04:23:14.542Z,10.76
2018-04-11T04:24:14.751Z,10.76
2018-04-11T04:25:14.973Z,10.66
2018-04-11T04:26:15.189Z,10.70
2018-04-11T04:27:15.397Z,10.62
2018-04-11T04:28:15.613Z,10.66
2018-04-11T04:29:15.829Z,10.66
2018-04-11T04:30:16.033Z,10.60
2018-04-11T04:31:17.872Z,10.65
2018-04-11T04:32:16.451Z,10.65
2018-04-11T04:33:16.671Z,10.71
2018-04-11T04:34:18.369Z,10.70
2018-04-11T04:35:17.071Z,10.65
2018-04-11T04:36:17.284Z,10.77
2018-04-11T04:37:17.504Z,10.80
2018-04-11T04:38:19.369Z,10.71
2018-04-11T04:39:17.828Z,10.76
2018-04-11T04:40:18.032Z,10.68
2018-04-11T04:41:18.234Z,10.71
2018-04-11T04:42:20.367Z,10.62
2018-04-11T04:43:18.577Z,10.73
2018-04-11T04:44:18.799Z,10.71
2018-04-11T04:45:20.874Z,10.62
2018-04-11T04:46:19.213Z,10.59
2018-04-11T04:47:19.432Z,10.56
2018-04-11T04:48:19.640Z,10.42
2018-04-11T04:49:19.848Z,10.46
2018-04-11T04:50:20.068Z,10.51
2018-04-11T04:51:20.273Z,10.53
2018-04-11T04:52:22.374Z,10.46
2018-04-11T04:53:20.705Z,10.36
2018-04-11T04:54:20.911Z,10.46
2018-04-11T04:55:21.124Z,10.36
2018-04-11T04:56:22.870Z,10.42
2018-04-11T04:57:21.460Z,10.42
2018-04-11T04:58:23.375Z,10.58
2018-04-11T04:59:21.832Z,10.44
2018-04-11T05:00:22.048Z,10.53
2018-04-11T05:01:22.260Z,10.51
2018-04-11T05:02:22.477Z,10.53
2018-04-11T05:03:22.697Z,10.65
2018-04-11T05:04:22.902Z,10.63
2018-04-11T05:05:23.110Z,10.77
2018-04-11T05:06:23.336Z,10.78
2018-04-11T05:07:23.541Z,10.86
2018-04-11T05:08:23.749Z,10.83
2018-04-11T05:09:23.956Z,10.91
2018-04-11T05:10:24.169Z,10.96
2018-04-11T05:11:24.386Z,10.89
2018-04-11T05:12:24.590Z,10.89
2018-04-11T05:13:24.815Z,10.91
2018-04-11T05:14:25.025Z,10.89
2018-04-11T05:15:25.233Z,10.96
2018-04-11T05:16:25.447Z,10.88
2018-04-11T05:17:25.654Z,10.81
2018-04-11T05:18:25.868Z,10.80
2018-04-11T05:19:26.086Z,10.88
2018-04-11T05:20:26.285Z,10.86
2018-04-11T05:21:28.367Z,10.91
2018-04-11T05:22:26.713Z,10.98
2018-04-11T05:23:26.919Z,10.86
2018-04-11T05:24:27.137Z,10.88
2018-04-11T05:25:27.341Z,10.76
2018-04-11T05:26:27.566Z,10.70
2018-04-11T05:27:27.782Z,10.55
2018-04-11T05:28:27.988Z,10.53
2018-04-11T05:29:29.878Z,10.53
2018-04-11T05:30:28.336Z,10.51
2018-04-11T05:31:28.544Z,10.43
2018-04-11T05:32:30.377Z,10.47
2018-04-11T05:33:28.952Z,10.43
2018-04-11T05:34:29.161Z,10.51
2018-04-11T05:35:32.873Z,10.44
2018-04-11T05:36:29.580Z,10.43
2018-04-11T05:37:29.797Z,10.43
2018-04-11T05:38:30.006Z,10.43
2018-04-11T05:39:30.216Z,10.52
2018-04-11T05:40:34.369Z,10.56
2018-04-11T05:41:30.570Z,10.65
2018-04-11T05:42:33.922Z,10.68
2018-04-11T05:43:30.997Z,10.70
2018-04-11T05:44:31.222Z,10.88
2018-04-11T05:45:31.411Z,10.91
2018-04-11T05:46:31.620Z,10.95
2018-04-11T05:47:31.832Z,11.09
2018-04-11T05:48:33.878Z,11.02
2018-04-11T05:49:32.204Z,11.02
2018-04-11T05:50:32.430Z,11.09
2018-04-11T05:51:32.663Z,11.02
2018-04-11T05:52:32.867Z,10.96
2018-04-11T05:53:34.889Z,10.96
2018-04-11T05:54:33.206Z,10.96
2018-04-11T05:55:33.412Z,10.92
2018-04-11T05:56:33.632Z,10.96
2018-04-11T05:57:33.839Z,10.92
2018-04-11T05:58:34.085Z,10.94
2018-04-11T05:59:34.196Z,10.95
2018-04-11T06:00:34.395Z,10.98
2018-04-11T06:01:34.617Z,10.98
2018-04-11T06:02:34.820Z,10.96
2018-04-11T06:03:35.096Z,10.94
2018-04-11T06:04:35.349Z,10.92
2018-04-11T06:05:36.877Z,10.98
2018-04-11T06:06:41.485Z,10.92
2018-04-11T06:07:35.633Z,10.88
2018-04-11T06:08:37.382Z,10.89
2018-04-11T06:09:37.979Z,10.96
2018-04-11T06:10:36.171Z,10.94
2018-04-11T06:11:36.382Z,11.01
2018-04-11T06:12:36.590Z,10.98
2018-04-11T06:13:48.499Z,10.83
2018-04-11T06:14:40.975Z,10.78
2018-04-11T06:15:37.187Z,10.78
2018-04-11T06:16:37.395Z,10.84
2018-04-11T06:17:37.610Z,10.81
2018-04-11T06:18:37.823Z,10.78
2018-04-11T06:19:38.033Z,10.77
2018-04-11T06:20:38.239Z,10.92
2018-04-11T06:21:38.450Z,10.89
2018-04-11T06:22:38.658Z,10.95
2018-04-11T06:23:38.873Z,10.91
2018-04-11T06:24:39.473Z,10.94
2018-04-11T06:25:47.010Z,10.99
2018-04-11T06:26:39.555Z,11.02
2018-04-11T06:27:39.803Z,11.03
2018-04-11T06:28:39.815Z,11.07
2018-04-11T06:29:43.872Z,11.09
2018-04-11T06:30:40.210Z,11.13
2018-04-11T06:31:40.404Z,11.10
2018-04-11T06:32:43.857Z,11.02
2018-04-11T06:33:40.886Z,10.99
2018-04-11T06:34:41.056Z,10.91
2018-04-11T06:35:41.248Z,10.94
2018-04-11T06:36:41.455Z,10.88
2018-04-11T06:37:41.664Z,10.91
2018-04-11T06:38:41.869Z,10.94
2018-04-11T06:39:42.093Z,10.84
2018-04-11T06:40:42.306Z,10.83
2018-04-11T06:41:42.501Z,10.78
2018-04-11T06:42:42.701Z,10.89
2018-04-11T06:43:42.908Z,10.92
2018-04-11T06:44:43.115Z,10.89
2018-04-11T06:45:43.332Z,10.91
2018-04-11T06:46:43.535Z,10.91
2018-04-11T06:47:43.743Z,10.96
2018-04-11T06:48:43.945Z,11.06
2018-04-11T06:49:44.167Z,11.06
2018-04-11T06:50:44.373Z,11.03
2018-04-11T06:51:44.572Z,11.03
2018-04-11T06:52:44.779Z,11.09
2018-04-11T06:53:44.999Z,11.13
2018-04-11T06:54:45.201Z,11.13
2018-04-11T06:55:45.419Z,11.20
2018-04-11T06:56:45.637Z,11.31
2018-04-11T06:57:45.836Z,11.21
2018-04-11T06:58:46.056Z,11.28
2018-04-11T06:59:46.260Z,11.35
2018-04-11T07:00:46.470Z,11.28
2018-04-11T07:01:48.375Z,11.34
2018-04-11T07:02:48.373Z,11.47
2018-04-11T07:03:46.959Z,11.56
2018-04-11T07:04:48.216Z,11.56
2018-04-11T07:05:47.760Z,11.67
2018-04-11T07:06:47.503Z,11.68
2018-04-11T07:07:47.702Z,11.70
2018-04-11T07:08:47.930Z,11.82
2018-04-11T07:09:48.327Z,11.83
2018-04-11T07:10:48.598Z,11.83
2018-04-11T07:11:50.337Z,11.80
2018-04-11T07:12:50.597Z,11.90
2018-04-11T07:13:49.329Z,11.82
2018-04-11T07:14:52.724Z,11.86
2018-04-11T07:15:49.175Z,11.78
2018-04-11T07:16:49.475Z,11.80
2018-04-11T07:17:50.469Z,11.75
2018-04-11T07:18:51.599Z,11.83
2018-04-11T07:19:50.800Z,11.77
2018-04-11T07:20:50.861Z,11.83
2018-04-11T07:21:50.329Z,11.96
2018-04-11T07:22:50.533Z,11.86
2018-04-11T07:23:51.044Z,11.83
2018-04-11T07:24:52.217Z,11.87
2018-04-11T07:25:51.371Z,11.82
2018-04-11T07:26:51.298Z,11.77
2018-04-11T07:27:51.512Z,11.93
2018-04-11T07:28:51.708Z,11.94
2018-04-11T07:29:52.048Z,11.93
2018-04-11T07:30:52.316Z,12.06
2018-04-11T07:31:52.408Z,12.04
2018-04-11T07:32:52.519Z,11.90
2018-04-11T07:33:54.378Z,11.86
2018-04-11T07:34:52.962Z,11.67
2018-04-11T07:35:53.173Z,11.71
2018-04-11T07:36:53.379Z,11.67
2018-04-11T07:37:53.606Z,11.57
2018-04-11T07:38:53.817Z,11.62
2018-04-11T07:39:55.875Z,11.65
2018-04-11T07:40:54.216Z,11.72
2018-04-11T07:41:54.431Z,11.65
2018-04-11T07:42:54.660Z,11.61
2018-04-11T07:43:54.865Z,11.65
2018-04-11T07:44:55.078Z,11.68
2018-04-11T07:45:56.875Z,11.64
2018-04-11T07:46:55.450Z,11.75
2018-04-11T07:47:55.668Z,11.74
2018-04-11T07:48:55.873Z,11.75
2018-04-11T07:49:56.083Z,11.83
2018-04-11T07:50:57.882Z,11.85
2018-04-11T07:51:56.455Z,11.87
2018-04-11T07:52:56.678Z,11.93
2018-04-11T07:53:56.876Z,11.97
2018-04-11T07:54:57.088Z,12.05
2018-04-11T07:55:57.307Z,12.06
2018-04-11T07:56:57.512Z,12.12
2018-04-11T07:57:57.724Z,12.13
2018-04-11T07:58:57.946Z,12.15
2018-04-11T07:59:58.150Z,12.13
2018-04-11T08:00:58.357Z,12.13
2018-04-11T08:01:58.571Z,11.96
2018-04-11T08:02:58.778Z,11.82
2018-04-11T08:03:58.989Z,11.72
2018-04-11T08:04:59.222Z,11.78
2018-04-11T08:05:59.409Z,11.67
2018-04-11T08:06:59.631Z,11.67
2018-04-11T08:07:59.842Z,11.67
2018-04-11T08:09:00.168Z,11.54
2018-04-11T08:10:00.292Z,11.35
2018-04-11T08:11:00.492Z,11.47
2018-04-11T08:12:02.373Z,11.59
2018-04-11T08:13:00.830Z,11.59
2018-04-11T08:14:01.042Z,11.59
2018-04-11T08:15:01.249Z,11.67
2018-04-11T08:16:02.862Z,11.64
2018-04-11T08:17:03.370Z,11.38
2018-04-11T08:18:01.707Z,11.41
2018-04-11T08:19:01.916Z,11.44
2018-04-11T08:20:02.129Z,11.38
2018-04-11T08:21:02.332Z,11.39
2018-04-11T08:22:02.545Z,11.35
2018-04-11T08:23:04.372Z,11.29
2018-04-11T08:24:02.952Z,11.44
2018-04-11T08:25:03.167Z,11.35
2018-04-11T08:26:03.386Z,11.47
2018-04-11T08:27:03.582Z,11.49
2018-04-11T08:28:03.795Z,11.28
2018-04-11T08:29:05.874Z,11.27
2018-04-11T08:30:04.210Z,11.43
2018-04-11T08:31:04.431Z,11.47
2018-04-11T08:32:04.640Z,11.46
2018-04-11T08:33:04.878Z,11.53
2018-04-11T08:34:05.062Z,11.64
2018-04-11T08:35:05.269Z,11.68
2018-04-11T08:36:05.485Z,11.62
2018-04-11T08:37:05.702Z,11.65
2018-04-11T08:38:05.893Z,11.77
2018-04-11T08:39:06.107Z,11.75
2018-04-11T08:40:06.313Z,11.59
2018-04-11T08:41:06.532Z,11.74
2018-04-11T08:42:08.372Z,11.70
2018-04-11T08:43:06.976Z,11.78
2018-04-11T08:44:07.165Z,11.74
2018-04-11T08:45:07.382Z,11.83
2018-04-11T08:46:07.590Z,11.97
2018-04-11T08:47:09.373Z,12.06
2018-04-11T08:48:07.962Z,12.11
2018-04-11T08:49:08.175Z,12.13
2018-04-11T08:50:08.385Z,12.20
2018-04-11T08:51:08.588Z,12.15
2018-04-11T08:52:08.795Z,12.12
2018-04-11T08:53:09.014Z,12.26
2018-04-11T08:54:09.209Z,12.26
2018-04-11T08:55:12.376Z,12.23
2018-04-11T08:56:09.594Z,12.31
2018-04-11T08:57:09.804Z,12.19
2018-04-11T08:58:10.012Z,12.27
2018-04-11T08:59:10.237Z,12.23
2018-04-11T09:00:10.437Z,12.31
2018-04-11T09:01:10.650Z,12.31
2018-04-11T09:02:10.861Z,12.33
2018-04-11T09:03:11.072Z,12.26
2018-04-11T09:04:11.286Z,12.31
2018-04-11T09:05:13.373Z,12.27
2018-04-11T09:06:11.712Z,12.23
2018-04-11T09:07:13.877Z,12.44
2018-04-11T09:08:12.083Z,12.56
2018-04-11T09:09:12.304Z,12.66
2018-04-11T09:10:12.501Z,12.81
2018-04-11T09:11:12.709Z,12.84
2018-04-11T09:12:12.929Z,12.82
2018-04-11T09:13:13.137Z,12.87
2018-04-11T09:14:13.345Z,12.87
2018-04-11T09:15:13.572Z,12.93
2018-04-11T09:16:13.790Z,13.17
2018-04-11T09:17:13.999Z,13.36
2018-04-11T09:18:14.218Z,13.41
2018-04-11T09:19:14.434Z,13.37
2018-04-11T09:20:14.637Z,13.32
2018-04-11T09:21:16.378Z,13.43
2018-04-11T09:22:14.958Z,13.43
2018-04-11T09:23:16.875Z,13.46
2018-04-11T09:24:15.340Z,13.70
2018-04-11T09:25:17.390Z,13.87
2018-04-11T09:26:15.752Z,13.99
2018-04-11T09:27:15.957Z,13.92
2018-04-11T09:28:16.177Z,14.04
2018-04-11T09:29:16.386Z,14.02
2018-04-11T09:30:16.604Z,13.99
2018-04-11T09:31:16.815Z,14.06
2018-04-11T09:32:18.875Z,14.10
2018-04-11T09:33:17.224Z,14.17
2018-04-11T09:34:17.436Z,13.99
2018-04-11T09:35:17.650Z,13.91
2018-04-11T09:36:17.869Z,13.83
2018-04-11T09:37:18.073Z,14.02
2018-04-11T09:38:18.279Z,14.21
2018-04-11T09:39:18.493Z,14.28
2018-04-11T09:40:18.703Z,14.35
2018-04-11T09:41:18.907Z,14.49
2018-04-11T09:42:19.130Z,14.43
2018-04-11T09:43:19.354Z,14.54
2018-04-11T09:44:19.562Z,14.64
2018-04-11T09:45:19.787Z,14.91
2018-04-11T09:46:19.994Z,14.95
2018-04-11T09:47:20.209Z,14.88
2018-04-11T09:48:20.440Z,14.91
2018-04-11T09:49:20.649Z,14.94
2018-04-11T09:50:20.879Z,15.11
2018-04-11T09:51:21.101Z,15.05
2018-04-11T09:52:21.311Z,15.11
2018-04-11T09:53:21.516Z,15.05
2018-04-11T09:54:21.722Z,14.88
2018-04-11T09:55:21.938Z,15.05
2018-04-11T09:56:22.155Z,15.09
2018-04-11T09:57:22.361Z,15.19
2018-04-11T09:58:22.578Z,15.23
2018-04-11T09:59:24.379Z,15.38
2018-04-11T10:00:22.976Z,15.43
2018-04-11T10:01:24.878Z,15.19
2018-04-11T10:02:24.879Z,14.43
2018-04-11T10:03:23.469Z,14.46
2018-04-11T10:04:23.687Z,14.49
2018-04-11T10:05:23.902Z,14.74
2018-04-11T10:06:24.117Z,14.74
2018-04-11T10:07:25.892Z,14.74
2018-04-11T10:08:24.464Z,14.39
2018-04-11T10:09:24.683Z,14.27
2018-04-11T10:10:24.896Z,14.38
2018-04-11T10:11:25.105Z,14.74
2018-04-11T10:12:25.320Z,15.15
2018-04-11T10:13:25.539Z,15.39
2018-04-11T10:14:25.774Z,15.57
2018-04-11T10:15:25.977Z,15.60
2018-04-11T10:16:26.181Z,15.46
2018-04-11T10:17:26.402Z,15.39
2018-04-11T10:18:26.612Z,15.41
2018-04-11T10:19:26.841Z,15.38
2018-04-11T10:20:27.052Z,15.01
2018-04-11T10:21:27.267Z,14.87
2018-04-11T10:22:27.485Z,14.95
2018-04-11T10:23:27.699Z,14.88
2018-04-11T10:24:27.921Z,14.93
2018-04-11T10:25:28.130Z,15.02
2018-04-11T10:26:29.067Z,15.02
2018-04-11T10:27:28.531Z,15.20
2018-04-11T10:28:28.744Z,15.02
2018-04-11T10:29:28.954Z,14.93
2018-04-11T10:30:29.186Z,14.90
2018-04-11T10:31:29.382Z,15.01
2018-04-11T10:32:29.600Z,14.86
2018-04-11T10:33:29.819Z,15.03
2018-04-11T10:34:30.026Z,14.98
2018-04-11T10:35:30.247Z,14.80
2018-04-11T10:36:30.465Z,14.81
2018-04-11T10:37:30.676Z,14.80
2018-04-11T10:38:32.379Z,14.98
2018-04-11T10:39:31.091Z,15.03
2018-04-11T10:40:31.298Z,14.95
2018-04-11T10:41:31.517Z,15.23
2018-04-11T10:42:33.388Z,15.39
2018-04-11T10:43:31.975Z,15.63
2018-04-11T10:44:32.189Z,15.81
2018-04-11T10:45:32.409Z,16.07
2018-04-11T10:46:34.381Z,15.88
2018-04-11T10:47:32.838Z,16.01
2018-04-11T10:48:36.889Z,16.15
2018-04-11T10:49:33.217Z,16.06
2018-04-11T10:50:35.386Z,16.59
2018-04-11T10:51:33.606Z,17.04
2018-04-11T10:52:33.814Z,18.00
2018-04-11T10:53:34.038Z,17.91
2018-04-11T10:54:34.262Z,17.55
2018-04-11T10:55:34.472Z,17.53
2018-04-11T10:56:34.701Z,17.08
2018-04-11T10:57:34.908Z,16.68
2018-04-11T10:58:35.120Z,16.95
2018-04-11T10:59:36.882Z,17.81
2018-04-11T11:00:37.380Z,19.06
2018-04-11T11:01:35.600Z,20.00
2018-04-11T11:02:35.827Z,21.30
2018-04-11T11:03:36.038Z,22.32
2018-04-11T11:04:36.261Z,22.22
2018-04-11T11:05:37.482Z,21.79
2018-04-11T11:06:36.703Z,21.09
2018-04-11T11:07:38.881Z,20.27
2018-04-11T11:08:40.883Z,18.70
2018-04-11T11:09:37.345Z,17.91
2018-04-11T11:10:39.389Z,17.23
2018-04-11T11:11:41.407Z,16.85
2018-04-11T11:12:39.396Z,16.80
2018-04-11T11:13:38.107Z,16.62
2018-04-11T11:14:41.882Z,16.62
2018-04-11T11:15:38.477Z,16.55
2018-04-11T11:16:38.690Z,16.59
2018-04-11T11:17:38.918Z,16.31
2018-04-11T11:18:39.142Z,16.35
2018-04-11T11:19:39.359Z,16.42
2018-04-11T11:20:39.583Z,16.25
2018-04-11T11:21:39.809Z,16.12
2018-04-11T11:22:40.041Z,15.82
2018-04-11T11:23:40.258Z,15.68
2018-04-11T11:24:42.426Z,15.75
2018-04-11T11:25:40.612Z,15.81
2018-04-11T11:26:42.384Z,15.79
2018-04-11T11:27:40.973Z,15.68
2018-04-11T11:28:41.227Z,15.82
2018-04-11T11:29:41.420Z,16.00
2018-04-11T11:30:41.640Z,16.34
2018-04-11T11:31:41.856Z,16.31
2018-04-11T11:32:42.071Z,16.20
2018-04-11T11:33:42.281Z,16.00
2018-04-11T11:34:42.495Z,16.65
2018-04-11T11:35:42.706Z,18.27
2018-04-11T11:36:42.930Z,18.25
2018-04-11T11:37:43.143Z,17.92
2018-04-11T11:38:43.384Z,17.62
2018-04-11T11:39:46.387Z,17.44
2018-04-11T11:40:43.757Z,17.33
2018-04-11T11:41:43.865Z,17.18
2018-04-11T11:42:45.907Z,16.86
2018-04-11T11:43:44.238Z,16.63
2018-04-11T11:44:44.454Z,16.68
2018-04-11T11:45:44.668Z,16.89
2018-04-11T11:46:44.898Z,17.15
2018-04-11T11:47:45.139Z,17.26
2018-04-11T11:48:45.318Z,17.26
2018-04-11T11:49:45.537Z,17.28
2018-04-11T11:50:45.756Z,17.40
2018-04-11T11:51:45.976Z,17.36
2018-04-11T11:52:46.205Z,17.14
2018-04-11T11:53:46.420Z,17.18
2018-04-11T11:54:46.644Z,17.46
2018-04-11T11:55:46.862Z,17.67
2018-04-11T11:56:47.097Z,17.91
2018-04-11T11:57:47.300Z,18.02
2018-04-11T11:58:47.521Z,18.03
2018-04-11T11:59:47.732Z,18.34
2018-04-11T12:00:47.960Z,18.74
2018-04-11T12:01:48.189Z,18.74
2018-04-11T12:02:48.417Z,19.08
2018-04-11T12:03:48.630Z,19.40
2018-04-11T12:04:48.858Z,19.51
2018-04-11T12:05:50.072Z,19.39
2018-04-11T12:06:50.901Z,19.60
2018-04-11T12:07:49.496Z,19.21
2018-04-11T12:08:49.711Z,19.11
2018-04-11T12:09:49.930Z,18.99
2018-04-11T12:10:50.161Z,19.40
2018-04-11T12:11:51.914Z,19.32
2018-04-11T12:12:50.619Z,19.55
2018-04-11T12:13:50.834Z,19.23
2018-04-11T12:14:52.892Z,19.29
2018-04-11T12:15:51.240Z,19.69
2018-04-11T12:16:51.468Z,19.87
2018-04-11T12:17:53.389Z,20.91
2018-04-11T12:18:51.916Z,21.66
2018-04-11T12:19:53.889Z,21.56
2018-04-11T12:20:53.894Z,20.81
2018-04-11T12:21:53.396Z,20.46
2018-04-11T12:22:52.491Z,19.84
2018-04-11T12:23:52.721Z,19.87
2018-04-11T12:24:52.943Z,20.12
2018-04-11T12:25:53.163Z,21.02
2018-04-11T12:26:54.906Z,21.75
2018-04-11T12:28:00.442Z,22.41
2018-04-11T12:28:53.751Z,23.12
2018-04-11T12:29:53.965Z,22.52
2018-04-11T12:30:55.194Z,22.59
2018-04-11T12:32:15.422Z,23.23
2018-04-11T12:32:54.635Z,22.87
2018-04-11T12:33:58.389Z,21.41
2018-04-11T12:34:56.901Z,20.99
2018-04-11T12:35:55.117Z,20.53
2018-04-11T12:36:56.895Z,20.23
2018-04-11T12:37:55.491Z,19.86
2018-04-11T12:39:00.659Z,18.83
2018-04-11T12:39:56.878Z,17.74
2018-04-11T12:40:55.982Z,17.87
2018-04-11T12:41:56.201Z,17.79
2018-04-11T12:42:56.443Z,17.35
2018-04-11T12:43:56.675Z,17.28
2018-04-11T12:44:56.871Z,17.63
2018-04-11T12:45:57.086Z,17.94
2018-04-11T12:46:59.326Z,18.22
2018-04-11T12:47:57.552Z,18.21
2018-04-11T12:48:59.394Z,18.22
2018-04-11T12:49:58.032Z,18.25
2018-04-11T12:50:59.199Z,18.61
2018-04-11T12:51:58.421Z,18.55
2018-04-11T12:52:58.649Z,18.65
2018-04-11T12:54:01.417Z,18.47
2018-04-11T12:54:59.013Z,18.31